This is the latest recevied weather packets stored in our database for station/object KN6KS. If no packets are shown the sender has not sent any weather packets the latest 10 day(s).
| Time | Temp. | Humidity | Pressure | Rain* | Wind** | Luminosity | Snow |
|---|---|---|---|---|---|---|---|
| 1778103751 | 27.22° C | 24% | 1015.5 hPa | 0 mm | - | 614 W/m² | - |
| 1778100111 | 26.11° C | 26% | 1015.7 hPa | 0 mm | - | 694 W/m² | - |
| 1778097990 | 26.11° C | 26% | 1016 hPa | 0 mm | - | 723 W/m² | - |
| 1778097687 | 26.11° C | 26% | 1016.1 hPa | 0 mm | - | 700 W/m² | - |
| 1778095565 | 24.44° C | 29% | 1015.9 hPa | 0 mm | - | 714 W/m² | - |
| 1778095261 | 25.56° C | 30% | 1016.2 hPa | 0 mm | - | 714 W/m² | - |
| 1778092532 | 23.33° C | 32% | 1016.7 hPa | 0 mm | - | 748 W/m² | - |
| 1778092229 | 23.33° C | 32% | 1016.4 hPa | 0 mm | - | 750 W/m² | - |
| 1778091321 | 22.78° C | 32% | 1016.7 hPa | 0 mm | - | 747 W/m² | - |
| 1778091018 | 22.22° C | 34% | 1016.7 hPa | 0 mm | - | 700 W/m² | - |
| 1778090714 | 22.22° C | 33% | 1016.4 hPa | 0 mm | - | 665 W/m² | - |
| 1778090108 | 21.67° C | 38% | 1016.9 hPa | 0 mm | - | 742 W/m² | - |
| 1778088896 | 21.67° C | 38% | 1016.8 hPa | 0 mm | - | 784 W/m² | - |
| 1778087684 | 19.44° C | 42% | 1016.8 hPa | 0 mm | - | 755 W/m² | - |
| 1778085554 | 18.33° C | 45% | 1017.1 hPa | 0 mm | - | 668 W/m² | - |
| 1778085254 | 19.44° C | 44% | 1017 hPa | 0 mm | - | 661 W/m² | - |
| 1778084949 | 18.89° C | 44% | 1017.1 hPa | 0 mm | - | 661 W/m² | - |
| 1778084647 | 18.89° C | 45% | 1017.1 hPa | 0 mm | - | 628 W/m² | - |
| 1778083734 | 18.89° C | 45% | 1017.1 hPa | 0 mm | - | 581 W/m² | - |
| 1778082825 | 17.22° C | 47% | 1017 hPa | 0 mm | - | 500 W/m² | - |
| 1778078068 | 13.89° C | 62% | 1016.8 hPa | 0 mm | - | 140 W/m² | - |
| 1778077464 | 13.89° C | 63% | 1016.8 hPa | 0 mm | - | 121 W/m² | - |
| 1778074737 | 10.56° C | 70% | 1016.4 hPa | 0 mm | - | 31 W/m² | - |
| 1778074434 | 10.56° C | 71% | 1016.4 hPa | 0 mm | - | 27 W/m² | - |
| 1778073828 | 10° C | 72% | 1016.2 hPa | 0 mm | - | 19 W/m² | - |
* Rain latest hour (hover to see other rain measurements)
** Current wind speed in m/s (hover to see current wind gust speed)